createdAt,value
2019-03-16T00:01:59.321Z,2.1
2019-03-16T00:04:58.948Z,2.1
2019-03-16T00:07:58.994Z,2.1
2019-03-16T00:10:59.115Z,2.1
2019-03-16T00:13:59.075Z,2.1
2019-03-16T00:16:59.285Z,2.1
2019-03-16T00:19:59.065Z,2.1
2019-03-16T00:22:59.297Z,2.1
2019-03-16T00:25:59.475Z,2.1
2019-03-16T00:28:59.205Z,2.1
2019-03-16T00:32:14.059Z,2.1
2019-03-16T00:34:59.046Z,2.1
2019-03-16T00:37:59.154Z,2.1
2019-03-16T00:40:59.129Z,2.1
2019-03-16T00:43:59.208Z,2.1
2019-03-16T00:46:59.213Z,2.1
2019-03-16T00:49:59.242Z,2.1
2019-03-16T00:52:59.301Z,2.1
2019-03-16T00:55:59.100Z,2.1
2019-03-16T00:58:59.288Z,2.1
2019-03-16T01:01:59.016Z,2.1
2019-03-16T01:04:59.036Z,2.1
2019-03-16T01:07:59.032Z,2.1
2019-03-16T01:10:59.237Z,2.1
2019-03-16T01:13:59.158Z,2.1
2019-03-16T01:16:59.161Z,2.1
2019-03-16T01:19:59.195Z,2.1
2019-03-16T01:22:59.300Z,2.1
2019-03-16T01:25:59.024Z,2.1
2019-03-16T01:28:59.074Z,2.1
2019-03-16T01:31:59.185Z,2.1
2019-03-16T01:34:59.087Z,2.1
2019-03-16T01:37:59.179Z,2.1
2019-03-16T01:40:59.326Z,2.1
2019-03-16T01:43:59.171Z,2.1
2019-03-16T01:46:59.255Z,2.1
2019-03-16T01:49:58.885Z,2.1
2019-03-16T01:52:58.939Z,2.1
2019-03-16T01:55:59.104Z,2.1
2019-03-16T01:58:59.010Z,2.1
2019-03-16T02:01:59.048Z,2
2019-03-16T02:04:59.157Z,2
2019-03-16T02:07:59.166Z,2
2019-03-16T02:10:59.057Z,2
2019-03-16T02:13:59.407Z,2
2019-03-16T02:16:59.201Z,2
2019-03-16T02:19:59.228Z,2
2019-03-16T02:22:59.133Z,2
2019-03-16T02:25:59.257Z,2
2019-03-16T02:28:59.041Z,2
2019-03-16T02:31:59.146Z,2
2019-03-16T02:34:59.233Z,2
2019-03-16T02:37:59.013Z,2
2019-03-16T02:40:59.057Z,2
2019-03-16T02:43:59.313Z,2
2019-03-16T02:46:59.151Z,2
2019-03-16T02:49:59.541Z,2
2019-03-16T02:52:59.585Z,2
2019-03-16T02:55:59.200Z,2
2019-03-16T02:58:58.995Z,2
2019-03-16T03:01:59.017Z,2
2019-03-16T03:04:59.132Z,2
2019-03-16T03:07:59.252Z,2
2019-03-16T03:11:01.037Z,2
2019-03-16T03:13:59.191Z,2
2019-03-16T03:16:59.468Z,2
2019-03-16T03:19:59.222Z,2
2019-03-16T03:22:59.196Z,2
2019-03-16T03:25:59.494Z,2
2019-03-16T03:28:59.341Z,2
2019-03-16T03:31:59.111Z,2
2019-03-16T03:34:59.162Z,2
2019-03-16T03:37:59.221Z,2
2019-03-16T03:41:02.826Z,2
2019-03-16T03:43:59.221Z,2
2019-03-16T03:46:59.221Z,2
2019-03-16T03:49:59.269Z,2
2019-03-16T03:52:58.931Z,2
2019-03-16T03:55:58.949Z,2
2019-03-16T03:58:59.377Z,2
2019-03-16T04:01:59.199Z,2
2019-03-16T04:04:58.936Z,2
2019-03-16T04:07:59.124Z,2
2019-03-16T04:10:59.027Z,2
2019-03-16T04:13:59.179Z,2
2019-03-16T04:16:59.225Z,2
2019-03-16T04:19:59.953Z,2
2019-03-16T04:22:59.163Z,2
2019-03-16T04:25:59.490Z,2
2019-03-16T04:28:59.235Z,2
2019-03-16T04:31:59.240Z,2
2019-03-16T04:34:58.969Z,2
2019-03-16T04:37:59.113Z,2
2019-03-16T04:40:59.329Z,2
2019-03-16T04:43:59.015Z,2
2019-03-16T04:46:59.077Z,2
2019-03-16T04:49:59.241Z,2
2019-03-16T04:52:59.127Z,2
2019-03-16T04:55:59.349Z,2
2019-03-16T04:58:59.256Z,2
2019-03-16T05:01:58.970Z,2
2019-03-16T05:04:58.869Z,2
2019-03-16T05:07:59.024Z,2
2019-03-16T05:10:59.146Z,2
2019-03-16T05:13:58.941Z,2
2019-03-16T05:16:58.969Z,2
2019-03-16T05:19:59.054Z,2
2019-03-16T05:22:59.060Z,2
2019-03-16T05:25:59.329Z,2
2019-03-16T05:28:59.094Z,2
2019-03-16T05:31:58.930Z,2
2019-03-16T05:34:59.035Z,2
2019-03-16T05:37:59.003Z,2
2019-03-16T05:40:58.949Z,2
2019-03-16T05:43:59.027Z,2
2019-03-16T05:46:59.010Z,2
2019-03-16T05:49:59.094Z,2
2019-03-16T05:52:59.098Z,2
2019-03-16T05:55:59.124Z,2
2019-03-16T05:58:59.167Z,2
2019-03-16T06:01:58.875Z,1.9
2019-03-16T06:05:11.828Z,1.9
2019-03-16T06:07:59.167Z,1.9
2019-03-16T06:10:58.991Z,1.9
2019-03-16T06:13:59.282Z,1.9
2019-03-16T06:16:58.921Z,1.9
2019-03-16T06:19:58.964Z,1.9
2019-03-16T06:22:59.070Z,1.9
2019-03-16T06:25:59.030Z,1.9
2019-03-16T06:28:59.048Z,1.9
2019-03-16T06:31:59.040Z,1.9
2019-03-16T06:34:59.164Z,1.9
2019-03-16T06:37:58.870Z,1.9
2019-03-16T06:40:58.881Z,1.9
2019-03-16T06:43:58.997Z,1.9
2019-03-16T06:46:58.954Z,1.9
2019-03-16T06:49:59.009Z,1.9
2019-03-16T06:52:59.034Z,1.9
2019-03-16T06:55:59.131Z,1.9
2019-03-16T06:58:58.974Z,1.9
2019-03-16T07:01:59.004Z,1.8
2019-03-16T07:04:58.903Z,1.8
2019-03-16T07:07:58.924Z,1.8
2019-03-16T07:10:59.034Z,1.8
2019-03-16T07:13:58.995Z,1.8
2019-03-16T07:17:02.942Z,1.8
2019-03-16T07:19:59.034Z,1.8
2019-03-16T07:22:59.119Z,1.8
2019-03-16T07:25:58.821Z,1.8
2019-03-16T07:28:58.980Z,1.8
2019-03-16T07:31:58.867Z,1.8
2019-03-16T07:34:58.986Z,1.8
2019-03-16T07:37:58.986Z,1.8
2019-03-16T07:40:59.011Z,1.8
2019-03-16T07:43:58.990Z,1.8
2019-03-16T07:46:59.024Z,1.8
2019-03-16T07:49:59.198Z,1.8
2019-03-16T07:52:59.031Z,1.8
2019-03-16T07:55:59.064Z,1.8
2019-03-16T07:58:59.114Z,1.8
2019-03-16T08:01:59.138Z,1.7
2019-03-16T08:04:58.884Z,1.7
2019-03-16T08:07:58.904Z,1.7
2019-03-16T08:10:59.199Z,1.7
2019-03-16T08:13:58.867Z,1.7
2019-03-16T08:16:59.015Z,1.7
2019-03-16T08:19:59.053Z,1.7
2019-03-16T08:22:59.085Z,1.7
2019-03-16T08:25:59.059Z,1.7
2019-03-16T08:28:59.950Z,1.7
2019-03-16T08:31:58.888Z,1.7
2019-03-16T08:35:01.330Z,1.7
2019-03-16T08:37:59.112Z,1.7
2019-03-16T08:40:58.882Z,1.7
2019-03-16T08:43:58.987Z,1.7
2019-03-16T08:46:59.096Z,1.7
2019-03-16T08:49:59.126Z,1.7
2019-03-16T08:52:58.737Z,1.7
2019-03-16T08:55:58.872Z,1.7
2019-03-16T08:58:59.004Z,1.7
2019-03-16T09:01:59.021Z,1.6
2019-03-16T09:04:59.022Z,1.6
2019-03-16T09:07:59.081Z,1.6
2019-03-16T09:10:59.088Z,1.6
2019-03-16T09:13:58.768Z,1.6
2019-03-16T09:16:58.985Z,1.6
2019-03-16T09:19:58.879Z,1.6
2019-03-16T09:22:58.939Z,1.6
2019-03-16T09:25:58.886Z,1.6
2019-03-16T09:29:00.808Z,1.6
2019-03-16T09:31:58.966Z,1.6
2019-03-16T09:34:59.595Z,1.6
2019-03-16T09:37:59.846Z,1.6
2019-03-16T09:40:59.158Z,1.6
2019-03-16T09:44:02.466Z,1.6
2019-03-16T09:46:58.789Z,1.6
2019-03-16T09:49:58.923Z,1.6
2019-03-16T09:52:59.035Z,1.6
2019-03-16T09:55:58.982Z,1.6
2019-03-16T09:58:58.836Z,1.6
2019-03-16T10:01:58.987Z,1.6
2019-03-16T10:04:59.046Z,1.6
2019-03-16T10:07:59.044Z,1.6
2019-03-16T10:10:58.975Z,1.6
2019-03-16T10:13:58.982Z,1.6
2019-03-16T10:16:58.939Z,1.6
2019-03-16T10:19:58.804Z,1.6
2019-03-16T10:22:59.073Z,1.6
2019-03-16T10:25:59.160Z,1.6
2019-03-16T10:28:58.964Z,1.6
2019-03-16T10:31:59.114Z,1.6
2019-03-16T10:34:59.035Z,1.6
2019-03-16T10:37:59.255Z,1.6
2019-03-16T10:40:58.960Z,1.6
2019-03-16T10:43:58.715Z,1.6
2019-03-16T10:46:59.043Z,1.6
2019-03-16T10:49:58.872Z,1.6
2019-03-16T10:52:58.777Z,1.6
2019-03-16T10:55:59.087Z,1.6
2019-03-16T10:58:58.820Z,1.6
2019-03-16T11:01:58.906Z,1.5
2019-03-16T11:04:58.864Z,1.5
2019-03-16T11:07:58.827Z,1.5
2019-03-16T11:10:58.869Z,1.5
2019-03-16T11:13:58.939Z,1.5
2019-03-16T11:16:58.956Z,1.5
2019-03-16T11:19:59.997Z,1.5
2019-03-16T11:22:59.063Z,1.5
2019-03-16T11:25:58.871Z,1.5
2019-03-16T11:29:09.734Z,1.5
2019-03-16T11:31:58.780Z,1.5
2019-03-16T11:34:59.101Z,1.5
2019-03-16T11:37:58.930Z,1.5
2019-03-16T11:40:59.041Z,1.5
2019-03-16T11:43:58.821Z,1.5
2019-03-16T11:46:58.842Z,1.5
2019-03-16T11:49:58.751Z,1.5
2019-03-16T11:52:59.058Z,1.5
2019-03-16T11:55:58.918Z,1.5
2019-03-16T11:58:58.949Z,1.5
2019-03-16T12:02:06.273Z,1.4
2019-03-16T12:04:58.995Z,1.4
2019-03-16T12:07:58.911Z,1.4
2019-03-16T12:10:58.794Z,1.4
2019-03-16T12:13:59.329Z,1.4
2019-03-16T12:16:58.938Z,1.4
2019-03-16T12:19:58.965Z,1.4
2019-03-16T12:22:58.895Z,1.4
2019-03-16T12:25:58.944Z,1.4
2019-03-16T12:28:58.915Z,1.4
2019-03-16T12:31:58.956Z,1.4
2019-03-16T12:34:58.805Z,1.4
2019-03-16T12:37:58.852Z,1.4
2019-03-16T12:40:58.746Z,1.4
2019-03-16T12:43:58.823Z,1.4
2019-03-16T12:46:58.908Z,1.4
2019-03-16T12:49:58.843Z,1.4
2019-03-16T12:52:58.731Z,1.4
2019-03-16T12:55:59.049Z,1.4
2019-03-16T12:59:11.298Z,1.4
2019-03-16T13:01:58.744Z,1.4
2019-03-16T13:04:58.740Z,1.4
2019-03-16T13:07:58.866Z,1.4
2019-03-16T13:10:58.926Z,1.4
2019-03-16T13:13:58.803Z,1.4
2019-03-16T13:16:58.867Z,1.4
2019-03-16T13:19:59.516Z,1.4
2019-03-16T13:22:59.099Z,1.4
2019-03-16T13:25:58.902Z,1.4
2019-03-16T13:28:58.653Z,1.4
2019-03-16T13:31:58.766Z,1.4
2019-03-16T13:34:58.815Z,1.4
2019-03-16T13:37:59.702Z,1.4
2019-03-16T13:40:58.916Z,1.4
2019-03-16T13:43:58.904Z,1.4
2019-03-16T13:46:59.074Z,1.4
2019-03-16T13:49:59.046Z,1.4
2019-03-16T13:52:59.048Z,1.4
2019-03-16T13:55:58.991Z,1.4
2019-03-16T13:58:59.019Z,1.4
2019-03-16T14:02:01.672Z,1.4
2019-03-16T14:05:01.496Z,1.4
2019-03-16T14:08:01.714Z,1.4
2019-03-16T14:11:02.249Z,1.4
2019-03-16T14:13:58.776Z,1.4
2019-03-16T14:16:58.834Z,1.4
2019-03-16T14:19:58.772Z,1.4
2019-03-16T14:22:59.084Z,1.4
2019-03-16T14:25:59.491Z,1.4
2019-03-16T14:28:58.797Z,1.4
2019-03-16T14:31:58.739Z,1.4
2019-03-16T14:35:00.705Z,1.4
2019-03-16T14:37:59.148Z,1.4
2019-03-16T14:40:58.894Z,1.4
2019-03-16T14:43:59.037Z,1.4
2019-03-16T14:46:59.003Z,1.4
2019-03-16T14:49:58.659Z,1.4
2019-03-16T14:52:58.660Z,1.4
2019-03-16T14:55:58.754Z,1.4
2019-03-16T14:58:58.919Z,1.4
2019-03-16T15:01:58.876Z,1.4
2019-03-16T15:04:58.804Z,1.4
2019-03-16T15:07:58.969Z,1.4
2019-03-16T15:10:58.851Z,1.4
2019-03-16T15:13:58.956Z,1.4
2019-03-16T15:16:58.974Z,1.4
2019-03-16T15:19:58.795Z,1.4
2019-03-16T15:22:58.793Z,1.4
2019-03-16T15:25:58.728Z,1.4
2019-03-16T15:28:59.211Z,1.4
2019-03-16T15:31:58.777Z,1.4
2019-03-16T15:34:58.887Z,1.4
2019-03-16T15:37:59.243Z,1.4
2019-03-16T15:40:58.717Z,1.4
2019-03-16T15:43:58.739Z,1.4
2019-03-16T15:46:58.796Z,1.4
2019-03-16T15:49:59.226Z,1.4
2019-03-16T15:52:58.894Z,1.4
2019-03-16T15:55:58.819Z,1.4
2019-03-16T15:58:58.860Z,1.4
2019-03-16T16:01:58.917Z,1.4
2019-03-16T16:04:58.843Z,1.4
2019-03-16T16:07:58.889Z,1.4
2019-03-16T16:11:02.500Z,1.4
2019-03-16T16:13:58.630Z,1.4
2019-03-16T16:16:58.805Z,1.4
2019-03-16T16:19:59.177Z,1.4
2019-03-16T16:22:58.784Z,1.4
2019-03-16T16:25:58.766Z,1.4
2019-03-16T16:28:58.797Z,1.4
2019-03-16T16:31:58.951Z,1.4
2019-03-16T16:34:58.976Z,1.4
2019-03-16T16:37:58.738Z,1.4
2019-03-16T16:40:58.759Z,1.4
2019-03-16T16:43:58.910Z,1.4
2019-03-16T16:46:58.826Z,1.4
2019-03-16T16:49:58.862Z,1.4
2019-03-16T16:52:59.593Z,1.4
2019-03-16T16:55:58.818Z,1.4
2019-03-16T16:58:58.992Z,1.4
2019-03-16T17:01:58.687Z,1.4
2019-03-16T17:04:58.700Z,1.4
2019-03-16T17:07:58.699Z,1.4
2019-03-16T17:10:58.601Z,1.4
2019-03-16T17:13:58.737Z,1.4
2019-03-16T17:16:59.084Z,1.4
2019-03-16T17:19:58.997Z,1.4
2019-03-16T17:22:59.130Z,1.4
2019-03-16T17:25:58.835Z,1.4
2019-03-16T17:28:58.820Z,1.4
2019-03-16T17:31:58.686Z,1.4
2019-03-16T17:34:58.844Z,1.4
2019-03-16T17:37:59.003Z,1.4
2019-03-16T17:40:58.930Z,1.4
2019-03-16T17:43:58.944Z,1.4
2019-03-16T17:46:58.929Z,1.4
2019-03-16T17:49:58.849Z,1.4
2019-03-16T17:52:58.546Z,1.4
2019-03-16T17:55:58.647Z,1.4
2019-03-16T17:58:58.749Z,1.4
2019-03-16T18:01:58.753Z,1.4
2019-03-16T18:04:58.898Z,1.4
2019-03-16T18:07:58.834Z,1.4
2019-03-16T18:10:58.886Z,1.4
2019-03-16T18:13:58.604Z,1.4
2019-03-16T18:16:58.713Z,1.4
2019-03-16T18:19:58.696Z,1.4
2019-03-16T18:22:58.881Z,1.4
2019-03-16T18:25:58.751Z,1.4
2019-03-16T18:28:58.769Z,1.4
2019-03-16T18:32:08.682Z,1.4
2019-03-16T18:34:58.800Z,1.4
2019-03-16T18:37:58.556Z,1.4
2019-03-16T18:40:58.542Z,1.4
2019-03-16T18:43:59.647Z,1.4
2019-03-16T18:46:58.604Z,1.4
2019-03-16T18:49:58.695Z,1.4
2019-03-16T18:52:58.746Z,1.4
2019-03-16T18:55:58.755Z,1.4
2019-03-16T18:58:58.876Z,1.4
2019-03-16T19:01:58.619Z,1.4
2019-03-16T19:04:58.678Z,1.4
2019-03-16T19:07:58.862Z,1.4
2019-03-16T19:10:58.747Z,1.4
2019-03-16T19:13:58.821Z,1.4
2019-03-16T19:16:58.774Z,1.4
2019-03-16T19:19:58.812Z,1.4
2019-03-16T19:22:59.932Z,1.4
2019-03-16T19:25:58.805Z,1.4
2019-03-16T19:28:58.825Z,1.4
2019-03-16T19:31:58.793Z,1.4
2019-03-16T19:34:58.813Z,1.4
2019-03-16T19:37:58.546Z,1.4
2019-03-16T19:40:59.138Z,1.4
2019-03-16T19:43:58.663Z,1.4
2019-03-16T19:46:58.751Z,1.4
2019-03-16T19:49:58.803Z,1.4
2019-03-16T19:52:58.957Z,1.4
2019-03-16T19:55:58.731Z,1.4
2019-03-16T19:59:01.463Z,1.4
2019-03-16T20:01:58.577Z,1.5
2019-03-16T20:04:58.613Z,1.5
2019-03-16T20:07:58.751Z,1.5
2019-03-16T20:11:07.691Z,1.5
2019-03-16T20:13:58.698Z,1.5
2019-03-16T20:16:58.846Z,1.5
2019-03-16T20:19:58.711Z,1.5
2019-03-16T20:22:58.771Z,1.5
2019-03-16T20:25:58.531Z,1.5
2019-03-16T20:28:58.562Z,1.5
2019-03-16T20:31:58.662Z,1.5
2019-03-16T20:34:58.686Z,1.5
2019-03-16T20:37:58.745Z,1.5
2019-03-16T20:40:58.695Z,1.5
2019-03-16T20:43:59.466Z,1.5
2019-03-16T20:46:58.803Z,1.5
2019-03-16T20:49:58.715Z,1.5
2019-03-16T20:52:59.269Z,1.5
2019-03-16T20:55:58.650Z,1.5
2019-03-16T20:58:58.593Z,1.5
2019-03-16T21:01:58.597Z,1.4
2019-03-16T21:04:58.651Z,1.4
2019-03-16T21:07:58.955Z,1.4
2019-03-16T21:10:58.629Z,1.4
2019-03-16T21:13:58.749Z,1.4
2019-03-16T21:16:58.716Z,1.4
2019-03-16T21:19:58.769Z,1.4
2019-03-16T21:22:58.815Z,1.4
2019-03-16T21:25:58.575Z,1.4
2019-03-16T21:28:58.722Z,1.4
2019-03-16T21:31:59.218Z,1.4
2019-03-16T21:34:58.826Z,1.4
2019-03-16T21:37:58.775Z,1.4
2019-03-16T21:40:58.608Z,1.4
2019-03-16T21:43:58.635Z,1.4
2019-03-16T21:46:58.652Z,1.4
2019-03-16T21:49:58.626Z,1.4
2019-03-16T21:52:58.720Z,1.4
2019-03-16T21:55:58.663Z,1.4
2019-03-16T21:58:59.649Z,1.4
2019-03-16T22:01:58.818Z,1.5
2019-03-16T22:04:58.562Z,1.5
2019-03-16T22:07:58.665Z,1.5
2019-03-16T22:10:58.663Z,1.5
2019-03-16T22:13:58.797Z,1.5
2019-03-16T22:16:58.805Z,1.5
2019-03-16T22:19:58.797Z,1.5
2019-03-16T22:22:58.853Z,1.5
2019-03-16T22:25:58.633Z,1.5
2019-03-16T22:28:58.568Z,1.5
2019-03-16T22:31:58.622Z,1.5
2019-03-16T22:34:58.683Z,1.5
2019-03-16T22:37:58.766Z,1.5
2019-03-16T22:40:59.035Z,1.5
2019-03-16T22:43:58.805Z,1.5
2019-03-16T22:46:58.775Z,1.5
2019-03-16T22:49:58.485Z,1.5
2019-03-16T22:52:58.661Z,1.5
2019-03-16T22:55:58.680Z,1.5
2019-03-16T22:58:58.742Z,1.5
2019-03-16T23:01:58.792Z,1.6
2019-03-16T23:04:58.752Z,1.6
2019-03-16T23:07:58.506Z,1.6
2019-03-16T23:10:58.557Z,1.6
2019-03-16T23:13:58.672Z,1.6
2019-03-16T23:16:58.741Z,1.6
2019-03-16T23:19:58.836Z,1.6
2019-03-16T23:22:58.904Z,1.6
2019-03-16T23:25:58.727Z,1.6
2019-03-16T23:28:58.894Z,1.6
2019-03-16T23:31:58.637Z,1.6
2019-03-16T23:34:58.781Z,1.6
2019-03-16T23:37:58.724Z,1.6
2019-03-16T23:40:58.752Z,1.6
2019-03-16T23:43:58.802Z,1.6
2019-03-16T23:46:58.583Z,1.6
2019-03-16T23:49:59.097Z,1.6
2019-03-16T23:52:58.711Z,1.6
2019-03-16T23:55:58.670Z,1.6
2019-03-16T23:58:58.798Z,1.6
